sensor_id;sensor_type;location;lat;lon;timestamp;P1;durP1;ratioP1;P2;durP2;ratioP2
20713;SDS011;10518;50.742;4.226;2023-09-08T00:02:02;3.53;;;2.47;;
20713;SDS011;10518;50.742;4.226;2023-09-08T00:04:28;5.90;;;2.85;;
20713;SDS011;10518;50.742;4.226;2023-09-08T00:06:53;4.90;;;2.97;;
20713;SDS011;10518;50.742;4.226;2023-09-08T00:09:19;5.38;;;2.67;;
20713;SDS011;10518;50.742;4.226;2023-09-08T00:11:45;5.05;;;2.63;;
20713;SDS011;10518;50.742;4.226;2023-09-08T00:14:10;6.30;;;2.90;;
20713;SDS011;10518;50.742;4.226;2023-09-08T00:16:36;5.00;;;2.80;;
20713;SDS011;10518;50.742;4.226;2023-09-08T00:19:04;5.53;;;2.80;;
20713;SDS011;10518;50.742;4.226;2023-09-08T00:21:29;6.47;;;2.67;;
20713;SDS011;10518;50.742;4.226;2023-09-08T00:23:55;5.35;;;3.20;;
20713;SDS011;10518;50.742;4.226;2023-09-08T00:26:21;6.10;;;3.80;;
20713;SDS011;10518;50.742;4.226;2023-09-08T00:28:47;6.75;;;2.63;;
20713;SDS011;10518;50.742;4.226;2023-09-08T00:31:13;4.40;;;2.83;;
20713;SDS011;10518;50.742;4.226;2023-09-08T00:33:39;4.22;;;2.67;;
20713;SDS011;10518;50.742;4.226;2023-09-08T00:36:07;7.93;;;2.88;;
20713;SDS011;10518;50.742;4.226;2023-09-08T00:38:33;6.18;;;2.58;;
20713;SDS011;10518;50.742;4.226;2023-09-08T00:40:58;5.68;;;2.65;;
20713;SDS011;10518;50.742;4.226;2023-09-08T00:43:25;6.55;;;3.00;;
20713;SDS011;10518;50.742;4.226;2023-09-08T00:45:51;4.05;;;2.38;;
20713;SDS011;10518;50.742;4.226;2023-09-08T00:48:18;3.58;;;2.67;;
20713;SDS011;10518;50.742;4.226;2023-09-08T00:50:44;5.93;;;3.13;;
20713;SDS011;10518;50.742;4.226;2023-09-08T00:53:10;4.50;;;2.60;;
20713;SDS011;10518;50.742;4.226;2023-09-08T00:55:37;5.15;;;2.80;;
20713;SDS011;10518;50.742;4.226;2023-09-08T00:58:05;6.90;;;2.88;;
20713;SDS011;10518;50.742;4.226;2023-09-08T01:00:31;6.43;;;2.85;;
20713;SDS011;10518;50.742;4.226;2023-09-08T01:02:57;4.93;;;3.28;;
20713;SDS011;10518;50.742;4.226;2023-09-08T01:05:23;6.25;;;2.55;;
20713;SDS011;10518;50.742;4.226;2023-09-08T01:07:49;2.95;;;2.42;;
20713;SDS011;10518;50.742;4.226;2023-09-08T01:10:15;5.13;;;2.70;;
20713;SDS011;10518;50.742;4.226;2023-09-08T01:12:41;6.63;;;3.33;;
20713;SDS011;10518;50.742;4.226;2023-09-08T01:15:07;7.05;;;3.58;;
20713;SDS011;10518;50.742;4.226;2023-09-08T01:17:34;4.68;;;3.00;;
20713;SDS011;10518;50.742;4.226;2023-09-08T01:20:09;7.10;;;3.53;;
20713;SDS011;10518;50.742;4.226;2023-09-08T01:22:52;5.35;;;3.20;;
20713;SDS011;10518;50.742;4.226;2023-09-08T01:25:28;5.47;;;2.65;;
20713;SDS011;10518;50.742;4.226;2023-09-08T01:27:55;5.85;;;2.80;;
20713;SDS011;10518;50.742;4.226;2023-09-08T01:30:23;4.43;;;2.60;;
20713;SDS011;10518;50.742;4.226;2023-09-08T01:32:50;5.50;;;2.63;;
20713;SDS011;10518;50.742;4.226;2023-09-08T01:35:16;5.30;;;2.75;;
20713;SDS011;10518;50.742;4.226;2023-09-08T01:37:46;6.35;;;2.95;;
20713;SDS011;10518;50.742;4.226;2023-09-08T01:40:13;5.07;;;2.70;;
20713;SDS011;10518;50.742;4.226;2023-09-08T01:42:39;4.50;;;2.95;;
20713;SDS011;10518;50.742;4.226;2023-09-08T01:45:06;4.50;;;2.97;;
20713;SDS011;10518;50.742;4.226;2023-09-08T01:47:32;5.22;;;2.75;;
20713;SDS011;10518;50.742;4.226;2023-09-08T01:49:58;8.70;;;3.63;;
20713;SDS011;10518;50.742;4.226;2023-09-08T01:52:24;4.57;;;2.88;;
20713;SDS011;10518;50.742;4.226;2023-09-08T01:54:50;4.53;;;2.63;;
20713;SDS011;10518;50.742;4.226;2023-09-08T01:57:15;4.07;;;2.78;;
20713;SDS011;10518;50.742;4.226;2023-09-08T01:59:41;4.90;;;2.95;;
20713;SDS011;10518;50.742;4.226;2023-09-08T02:02:07;4.78;;;2.33;;
20713;SDS011;10518;50.742;4.226;2023-09-08T02:04:32;4.32;;;2.95;;
20713;SDS011;10518;50.742;4.226;2023-09-08T02:06:58;5.07;;;3.03;;
20713;SDS011;10518;50.742;4.226;2023-09-08T02:09:31;8.25;;;3.67;;
20713;SDS011;10518;50.742;4.226;2023-09-08T02:11:58;4.55;;;3.33;;
20713;SDS011;10518;50.742;4.226;2023-09-08T02:14:23;6.80;;;3.15;;
20713;SDS011;10518;50.742;4.226;2023-09-08T02:16:49;7.68;;;3.65;;
20713;SDS011;10518;50.742;4.226;2023-09-08T02:19:15;6.43;;;3.28;;
20713;SDS011;10518;50.742;4.226;2023-09-08T02:21:40;4.85;;;3.22;;
20713;SDS011;10518;50.742;4.226;2023-09-08T02:24:06;4.35;;;3.30;;
20713;SDS011;10518;50.742;4.226;2023-09-08T02:26:32;6.22;;;3.22;;
20713;SDS011;10518;50.742;4.226;2023-09-08T02:28:58;7.35;;;3.45;;
20713;SDS011;10518;50.742;4.226;2023-09-08T02:31:25;5.38;;;3.55;;
20713;SDS011;10518;50.742;4.226;2023-09-08T02:33:51;6.00;;;3.33;;
20713;SDS011;10518;50.742;4.226;2023-09-08T02:36:17;7.22;;;3.22;;
20713;SDS011;10518;50.742;4.226;2023-09-08T02:38:43;4.72;;;3.00;;
20713;SDS011;10518;50.742;4.226;2023-09-08T02:41:08;6.82;;;3.25;;
20713;SDS011;10518;50.742;4.226;2023-09-08T02:43:34;6.55;;;3.47;;
20713;SDS011;10518;50.742;4.226;2023-09-08T02:45:59;6.30;;;3.40;;
20713;SDS011;10518;50.742;4.226;2023-09-08T02:48:25;6.50;;;3.42;;
20713;SDS011;10518;50.742;4.226;2023-09-08T02:50:50;7.50;;;3.28;;
20713;SDS011;10518;50.742;4.226;2023-09-08T02:53:16;6.78;;;3.65;;
20713;SDS011;10518;50.742;4.226;2023-09-08T02:55:42;5.85;;;3.60;;
20713;SDS011;10518;50.742;4.226;2023-09-08T02:58:07;11.15;;;3.75;;
20713;SDS011;10518;50.742;4.226;2023-09-08T03:00:33;6.82;;;3.83;;
20713;SDS011;10518;50.742;4.226;2023-09-08T03:02:58;4.72;;;3.05;;
20713;SDS011;10518;50.742;4.226;2023-09-08T03:05:24;9.05;;;4.03;;
20713;SDS011;10518;50.742;4.226;2023-09-08T03:07:50;6.78;;;3.35;;
20713;SDS011;10518;50.742;4.226;2023-09-08T03:10:15;7.47;;;3.78;;
20713;SDS011;10518;50.742;4.226;2023-09-08T03:12:41;5.03;;;2.90;;
20713;SDS011;10518;50.742;4.226;2023-09-08T03:15:07;5.05;;;3.20;;
20713;SDS011;10518;50.742;4.226;2023-09-08T03:17:32;7.32;;;3.33;;
20713;SDS011;10518;50.742;4.226;2023-09-08T03:19:59;5.22;;;3.08;;
20713;SDS011;10518;50.742;4.226;2023-09-08T03:22:24;7.47;;;3.30;;
20713;SDS011;10518;50.742;4.226;2023-09-08T03:24:50;5.60;;;3.20;;
20713;SDS011;10518;50.742;4.226;2023-09-08T03:27:16;5.38;;;3.17;;
20713;SDS011;10518;50.742;4.226;2023-09-08T03:29:41;5.97;;;3.25;;
20713;SDS011;10518;50.742;4.226;2023-09-08T03:32:07;5.35;;;3.08;;
20713;SDS011;10518;50.742;4.226;2023-09-08T03:34:32;4.95;;;3.10;;
20713;SDS011;10518;50.742;4.226;2023-09-08T03:36:59;7.13;;;3.75;;
20713;SDS011;10518;50.742;4.226;2023-09-08T03:39:24;7.85;;;3.45;;
20713;SDS011;10518;50.742;4.226;2023-09-08T03:41:50;7.75;;;3.75;;
20713;SDS011;10518;50.742;4.226;2023-09-08T03:44:15;6.72;;;3.20;;
20713;SDS011;10518;50.742;4.226;2023-09-08T03:46:41;6.50;;;3.30;;
20713;SDS011;10518;50.742;4.226;2023-09-08T03:49:06;4.43;;;2.88;;
20713;SDS011;10518;50.742;4.226;2023-09-08T03:51:33;5.35;;;2.95;;
20713;SDS011;10518;50.742;4.226;2023-09-08T03:53:58;5.82;;;3.40;;
20713;SDS011;10518;50.742;4.226;2023-09-08T03:56:24;5.30;;;3.78;;
20713;SDS011;10518;50.742;4.226;2023-09-08T03:58:50;6.55;;;3.08;;
20713;SDS011;10518;50.742;4.226;2023-09-08T04:01:16;7.30;;;3.65;;
20713;SDS011;10518;50.742;4.226;2023-09-08T04:03:42;5.28;;;3.05;;
20713;SDS011;10518;50.742;4.226;2023-09-08T04:06:08;4.78;;;2.97;;
20713;SDS011;10518;50.742;4.226;2023-09-08T04:08:34;4.82;;;3.08;;
20713;SDS011;10518;50.742;4.226;2023-09-08T04:10:59;6.75;;;3.20;;
20713;SDS011;10518;50.742;4.226;2023-09-08T04:13:25;7.72;;;3.65;;
20713;SDS011;10518;50.742;4.226;2023-09-08T04:15:51;5.82;;;3.45;;
20713;SDS011;10518;50.742;4.226;2023-09-08T04:18:16;5.80;;;2.60;;
20713;SDS011;10518;50.742;4.226;2023-09-08T04:20:42;4.15;;;2.72;;
20713;SDS011;10518;50.742;4.226;2023-09-08T04:23:08;5.43;;;2.92;;
20713;SDS011;10518;50.742;4.226;2023-09-08T04:25:34;6.78;;;3.55;;
20713;SDS011;10518;50.742;4.226;2023-09-08T04:28:01;5.38;;;3.25;;
20713;SDS011;10518;50.742;4.226;2023-09-08T04:30:27;5.13;;;3.28;;
20713;SDS011;10518;50.742;4.226;2023-09-08T04:32:52;8.13;;;2.90;;
20713;SDS011;10518;50.742;4.226;2023-09-08T04:35:18;5.57;;;3.05;;
20713;SDS011;10518;50.742;4.226;2023-09-08T04:37:44;5.82;;;3.33;;
20713;SDS011;10518;50.742;4.226;2023-09-08T04:40:09;10.45;;;3.78;;
20713;SDS011;10518;50.742;4.226;2023-09-08T04:42:35;6.45;;;3.35;;
20713;SDS011;10518;50.742;4.226;2023-09-08T04:45:01;5.13;;;3.35;;
20713;SDS011;10518;50.742;4.226;2023-09-08T04:47:26;7.68;;;3.75;;
20713;SDS011;10518;50.742;4.226;2023-09-08T04:49:52;5.20;;;3.22;;
20713;SDS011;10518;50.742;4.226;2023-09-08T04:52:18;8.10;;;3.55;;
20713;SDS011;10518;50.742;4.226;2023-09-08T04:54:43;8.48;;;3.90;;
20713;SDS011;10518;50.742;4.226;2023-09-08T04:57:09;9.07;;;3.40;;
20713;SDS011;10518;50.742;4.226;2023-09-08T04:59:35;6.13;;;3.53;;
20713;SDS011;10518;50.742;4.226;2023-09-08T05:02:02;6.13;;;3.78;;
20713;SDS011;10518;50.742;4.226;2023-09-08T05:04:28;4.78;;;3.08;;
20713;SDS011;10518;50.742;4.226;2023-09-08T05:06:53;7.80;;;3.47;;
20713;SDS011;10518;50.742;4.226;2023-09-08T05:09:19;8.90;;;3.83;;
20713;SDS011;10518;50.742;4.226;2023-09-08T05:11:44;8.35;;;4.05;;
20713;SDS011;10518;50.742;4.226;2023-09-08T05:14:10;6.20;;;3.40;;
20713;SDS011;10518;50.742;4.226;2023-09-08T05:16:35;7.00;;;3.92;;
20713;SDS011;10518;50.742;4.226;2023-09-08T05:19:11;7.63;;;3.63;;
20713;SDS011;10518;50.742;4.226;2023-09-08T05:21:40;7.63;;;3.88;;
20713;SDS011;10518;50.742;4.226;2023-09-08T05:24:08;6.20;;;3.38;;
20713;SDS011;10518;50.742;4.226;2023-09-08T05:26:35;5.80;;;3.65;;
20713;SDS011;10518;50.742;4.226;2023-09-08T05:29:02;7.32;;;3.80;;
20713;SDS011;10518;50.742;4.226;2023-09-08T05:31:27;5.55;;;3.33;;
20713;SDS011;10518;50.742;4.226;2023-09-08T05:33:53;9.23;;;3.47;;
20713;SDS011;10518;50.742;4.226;2023-09-08T05:36:18;5.55;;;3.45;;
20713;SDS011;10518;50.742;4.226;2023-09-08T05:38:44;8.43;;;3.60;;
20713;SDS011;10518;50.742;4.226;2023-09-08T05:41:10;7.00;;;3.67;;
20713;SDS011;10518;50.742;4.226;2023-09-08T05:43:35;4.40;;;3.45;;
20713;SDS011;10518;50.742;4.226;2023-09-08T05:46:01;8.10;;;3.88;;
20713;SDS011;10518;50.742;4.226;2023-09-08T05:48:27;7.63;;;4.28;;
20713;SDS011;10518;50.742;4.226;2023-09-08T05:50:52;9.27;;;4.13;;
20713;SDS011;10518;50.742;4.226;2023-09-08T05:53:18;6.55;;;4.00;;
20713;SDS011;10518;50.742;4.226;2023-09-08T05:55:44;8.70;;;3.58;;
20713;SDS011;10518;50.742;4.226;2023-09-08T05:58:09;12.80;;;4.20;;
20713;SDS011;10518;50.742;4.226;2023-09-08T06:00:36;9.15;;;3.65;;
20713;SDS011;10518;50.742;4.226;2023-09-08T06:03:01;10.40;;;4.47;;
20713;SDS011;10518;50.742;4.226;2023-09-08T06:05:27;7.63;;;4.03;;
20713;SDS011;10518;50.742;4.226;2023-09-08T06:07:53;8.30;;;4.13;;
20713;SDS011;10518;50.742;4.226;2023-09-08T06:10:19;6.82;;;3.80;;
20713;SDS011;10518;50.742;4.226;2023-09-08T06:12:44;8.52;;;4.50;;
20713;SDS011;10518;50.742;4.226;2023-09-08T06:15:10;9.32;;;4.07;;
20713;SDS011;10518;50.742;4.226;2023-09-08T06:17:36;6.70;;;3.60;;
20713;SDS011;10518;50.742;4.226;2023-09-08T06:20:02;8.23;;;3.80;;
20713;SDS011;10518;50.742;4.226;2023-09-08T06:22:27;7.57;;;4.07;;
20713;SDS011;10518;50.742;4.226;2023-09-08T06:24:53;5.63;;;3.67;;
20713;SDS011;10518;50.742;4.226;2023-09-08T06:27:18;9.60;;;3.80;;
20713;SDS011;10518;50.742;4.226;2023-09-08T06:29:45;6.63;;;3.60;;
20713;SDS011;10518;50.742;4.226;2023-09-08T06:32:11;6.30;;;3.40;;
20713;SDS011;10518;50.742;4.226;2023-09-08T06:34:37;6.03;;;3.60;;
20713;SDS011;10518;50.742;4.226;2023-09-08T06:37:03;6.35;;;3.80;;
20713;SDS011;10518;50.742;4.226;2023-09-08T06:39:28;4.78;;;3.15;;
20713;SDS011;10518;50.742;4.226;2023-09-08T06:41:54;5.72;;;3.45;;
20713;SDS011;10518;50.742;4.226;2023-09-08T06:44:20;9.70;;;3.80;;
20713;SDS011;10518;50.742;4.226;2023-09-08T06:46:46;6.30;;;3.67;;
20713;SDS011;10518;50.742;4.226;2023-09-08T06:49:12;8.10;;;4.40;;
20713;SDS011;10518;50.742;4.226;2023-09-08T06:51:37;4.75;;;3.13;;
20713;SDS011;10518;50.742;4.226;2023-09-08T06:54:03;8.15;;;3.40;;
20713;SDS011;10518;50.742;4.226;2023-09-08T06:56:29;5.78;;;3.40;;
20713;SDS011;10518;50.742;4.226;2023-09-08T06:58:55;6.07;;;3.28;;
20713;SDS011;10518;50.742;4.226;2023-09-08T07:01:23;6.40;;;3.22;;
20713;SDS011;10518;50.742;4.226;2023-09-08T07:03:49;5.72;;;3.80;;
20713;SDS011;10518;50.742;4.226;2023-09-08T07:06:15;7.03;;;4.05;;
20713;SDS011;10518;50.742;4.226;2023-09-08T07:08:41;5.03;;;3.20;;
20713;SDS011;10518;50.742;4.226;2023-09-08T07:11:07;6.15;;;3.70;;
20713;SDS011;10518;50.742;4.226;2023-09-08T07:13:33;5.63;;;3.58;;
20713;SDS011;10518;50.742;4.226;2023-09-08T07:15:59;3.83;;;3.28;;
20713;SDS011;10518;50.742;4.226;2023-09-08T07:18:25;4.07;;;2.95;;
20713;SDS011;10518;50.742;4.226;2023-09-08T07:20:50;7.97;;;3.72;;
20713;SDS011;10518;50.742;4.226;2023-09-08T07:23:16;5.00;;;3.72;;
20713;SDS011;10518;50.742;4.226;2023-09-08T07:25:46;4.20;;;3.28;;
20713;SDS011;10518;50.742;4.226;2023-09-08T07:28:13;6.55;;;3.60;;
20713;SDS011;10518;50.742;4.226;2023-09-08T07:30:38;6.82;;;4.10;;
20713;SDS011;10518;50.742;4.226;2023-09-08T07:33:04;5.45;;;3.13;;
20713;SDS011;10518;50.742;4.226;2023-09-08T07:35:30;6.13;;;3.42;;
20713;SDS011;10518;50.742;4.226;2023-09-08T07:37:57;6.53;;;4.22;;
20713;SDS011;10518;50.742;4.226;2023-09-08T07:40:22;6.95;;;3.90;;
20713;SDS011;10518;50.742;4.226;2023-09-08T07:42:48;5.72;;;3.78;;
20713;SDS011;10518;50.742;4.226;2023-09-08T07:45:14;7.10;;;4.22;;
20713;SDS011;10518;50.742;4.226;2023-09-08T07:47:39;7.10;;;3.97;;
20713;SDS011;10518;50.742;4.226;2023-09-08T07:50:25;6.13;;;3.60;;
20713;SDS011;10518;50.742;4.226;2023-09-08T07:52:53;12.02;;;3.95;;
20713;SDS011;10518;50.742;4.226;2023-09-08T07:55:19;6.05;;;3.53;;
20713;SDS011;10518;50.742;4.226;2023-09-08T07:57:49;6.05;;;4.10;;
20713;SDS011;10518;50.742;4.226;2023-09-08T08:00:19;7.88;;;3.67;;
20713;SDS011;10518;50.742;4.226;2023-09-08T08:02:51;7.50;;;4.38;;
20713;SDS011;10518;50.742;4.226;2023-09-08T08:05:19;7.10;;;3.90;;
20713;SDS011;10518;50.742;4.226;2023-09-08T08:07:45;5.95;;;3.67;;
20713;SDS011;10518;50.742;4.226;2023-09-08T08:10:11;7.18;;;4.40;;
20713;SDS011;10518;50.742;4.226;2023-09-08T08:12:38;6.22;;;3.47;;
20713;SDS011;10518;50.742;4.226;2023-09-08T08:15:04;9.18;;;4.10;;
20713;SDS011;10518;50.742;4.226;2023-09-08T08:17:30;11.90;;;4.03;;
20713;SDS011;10518;50.742;4.226;2023-09-08T08:19:56;5.60;;;3.58;;
20713;SDS011;10518;50.742;4.226;2023-09-08T08:22:32;5.97;;;3.58;;
20713;SDS011;10518;50.742;4.226;2023-09-08T08:24:58;6.40;;;3.60;;
20713;SDS011;10518;50.742;4.226;2023-09-08T08:27:23;6.95;;;4.05;;
20713;SDS011;10518;50.742;4.226;2023-09-08T08:29:49;6.95;;;4.38;;
20713;SDS011;10518;50.742;4.226;2023-09-08T08:32:16;4.68;;;3.47;;
20713;SDS011;10518;50.742;4.226;2023-09-08T08:34:42;5.15;;;3.78;;
20713;SDS011;10518;50.742;4.226;2023-09-08T08:37:07;7.13;;;3.40;;
20713;SDS011;10518;50.742;4.226;2023-09-08T08:39:33;5.20;;;3.28;;
20713;SDS011;10518;50.742;4.226;2023-09-08T08:42:05;6.95;;;3.90;;
20713;SDS011;10518;50.742;4.226;2023-09-08T08:44:32;10.60;;;3.60;;
20713;SDS011;10518;50.742;4.226;2023-09-08T08:46:58;4.97;;;3.35;;
20713;SDS011;10518;50.742;4.226;2023-09-08T08:49:28;5.30;;;3.47;;
20713;SDS011;10518;50.742;4.226;2023-09-08T08:51:55;6.35;;;3.65;;
20713;SDS011;10518;50.742;4.226;2023-09-08T08:54:22;5.75;;;3.45;;
20713;SDS011;10518;50.742;4.226;2023-09-08T08:56:49;5.68;;;3.42;;
20713;SDS011;10518;50.742;4.226;2023-09-08T08:59:15;6.93;;;3.60;;
20713;SDS011;10518;50.742;4.226;2023-09-08T09:01:41;4.38;;;3.15;;
20713;SDS011;10518;50.742;4.226;2023-09-08T09:04:08;6.65;;;3.30;;
20713;SDS011;10518;50.742;4.226;2023-09-08T09:06:35;5.93;;;3.30;;
20713;SDS011;10518;50.742;4.226;2023-09-08T09:09:01;6.95;;;3.67;;
20713;SDS011;10518;50.742;4.226;2023-09-08T09:11:30;5.40;;;3.67;;
20713;SDS011;10518;50.742;4.226;2023-09-08T09:13:57;6.45;;;3.58;;
20713;SDS011;10518;50.742;4.226;2023-09-08T09:16:23;6.43;;;3.45;;
20713;SDS011;10518;50.742;4.226;2023-09-08T09:18:58;5.53;;;3.30;;
20713;SDS011;10518;50.742;4.226;2023-09-08T09:21:40;7.88;;;3.88;;
20713;SDS011;10518;50.742;4.226;2023-09-08T09:24:13;7.45;;;3.90;;
20713;SDS011;10518;50.742;4.226;2023-09-08T09:26:42;5.72;;;3.40;;
20713;SDS011;10518;50.742;4.226;2023-09-08T09:29:12;5.68;;;3.45;;
20713;SDS011;10518;50.742;4.226;2023-09-08T09:31:54;5.50;;;3.65;;
20713;SDS011;10518;50.742;4.226;2023-09-08T09:34:48;4.88;;;3.13;;
20713;SDS011;10518;50.742;4.226;2023-09-08T09:37:15;6.13;;;3.70;;
20713;SDS011;10518;50.742;4.226;2023-09-08T09:39:41;5.32;;;3.28;;
20713;SDS011;10518;50.742;4.226;2023-09-08T09:42:06;5.80;;;3.92;;
20713;SDS011;10518;50.742;4.226;2023-09-08T09:44:32;5.82;;;4.15;;
20713;SDS011;10518;50.742;4.226;2023-09-08T09:46:58;7.47;;;3.35;;
20713;SDS011;10518;50.742;4.226;2023-09-08T09:49:26;9.32;;;3.65;;
20713;SDS011;10518;50.742;4.226;2023-09-08T09:51:56;5.63;;;3.70;;
20713;SDS011;10518;50.742;4.226;2023-09-08T09:54:23;4.28;;;2.95;;
20713;SDS011;10518;50.742;4.226;2023-09-08T09:56:49;8.38;;;3.88;;
20713;SDS011;10518;50.742;4.226;2023-09-08T09:59:18;6.03;;;3.50;;
20713;SDS011;10518;50.742;4.226;2023-09-08T10:01:44;4.47;;;3.13;;
20713;SDS011;10518;50.742;4.226;2023-09-08T10:04:11;4.75;;;3.33;;
20713;SDS011;10518;50.742;4.226;2023-09-08T10:06:37;5.72;;;3.22;;
20713;SDS011;10518;50.742;4.226;2023-09-08T10:09:04;4.82;;;2.90;;
20713;SDS011;10518;50.742;4.226;2023-09-08T10:11:39;6.97;;;4.28;;
20713;SDS011;10518;50.742;4.226;2023-09-08T10:14:09;4.55;;;2.95;;
20713;SDS011;10518;50.742;4.226;2023-09-08T10:16:37;4.95;;;2.90;;
20713;SDS011;10518;50.742;4.226;2023-09-08T10:19:09;4.97;;;3.40;;
20713;SDS011;10518;50.742;4.226;2023-09-08T10:21:42;5.57;;;3.25;;
20713;SDS011;10518;50.742;4.226;2023-09-08T10:24:24;5.10;;;2.97;;
20713;SDS011;10518;50.742;4.226;2023-09-08T10:26:55;5.35;;;3.70;;
20713;SDS011;10518;50.742;4.226;2023-09-08T10:29:25;3.60;;;2.90;;
20713;SDS011;10518;50.742;4.226;2023-09-08T10:31:52;5.38;;;3.22;;
20713;SDS011;10518;50.742;4.226;2023-09-08T10:34:19;4.20;;;2.88;;
20713;SDS011;10518;50.742;4.226;2023-09-08T10:36:45;5.53;;;3.10;;
20713;SDS011;10518;50.742;4.226;2023-09-08T10:39:32;4.20;;;2.95;;
20713;SDS011;10518;50.742;4.226;2023-09-08T10:44:55;4.10;;;3.08;;
20713;SDS011;10518;50.742;4.226;2023-09-08T10:47:25;5.28;;;2.72;;
20713;SDS011;10518;50.742;4.226;2023-09-08T10:49:51;3.67;;;2.92;;
20713;SDS011;10518;50.742;4.226;2023-09-08T10:52:20;4.60;;;3.00;;
20713;SDS011;10518;50.742;4.226;2023-09-08T10:54:48;4.55;;;3.10;;
20713;SDS011;10518;50.742;4.226;2023-09-08T10:57:18;5.90;;;3.42;;
20713;SDS011;10518;50.742;4.226;2023-09-08T11:05:16;5.35;;;3.03;;
20713;SDS011;10518;50.742;4.226;2023-09-08T11:07:44;3.80;;;3.10;;
20713;SDS011;10518;50.742;4.226;2023-09-08T11:10:10;6.68;;;3.42;;
20713;SDS011;10518;50.742;4.226;2023-09-08T11:12:37;3.65;;;2.60;;
20713;SDS011;10518;50.742;4.226;2023-09-08T11:15:04;4.18;;;2.20;;
20713;SDS011;10518;50.742;4.226;2023-09-08T11:17:33;5.53;;;2.65;;
20713;SDS011;10518;50.742;4.226;2023-09-08T11:20:00;4.50;;;2.83;;
20713;SDS011;10518;50.742;4.226;2023-09-08T11:22:26;3.42;;;2.40;;
20713;SDS011;10518;50.742;4.226;2023-09-08T11:24:55;4.75;;;2.50;;
20713;SDS011;10518;50.742;4.226;2023-09-08T11:27:22;5.60;;;3.45;;
20713;SDS011;10518;50.742;4.226;2023-09-08T11:29:48;3.70;;;2.38;;
20713;SDS011;10518;50.742;4.226;2023-09-08T11:32:15;4.30;;;2.42;;
20713;SDS011;10518;50.742;4.226;2023-09-08T11:34:40;4.90;;;2.45;;
20713;SDS011;10518;50.742;4.226;2023-09-08T11:37:13;3.75;;;2.50;;
20713;SDS011;10518;50.742;4.226;2023-09-08T11:39:41;4.30;;;2.55;;
20713;SDS011;10518;50.742;4.226;2023-09-08T11:42:08;6.22;;;2.97;;
20713;SDS011;10518;50.742;4.226;2023-09-08T11:44:35;4.18;;;2.83;;
20713;SDS011;10518;50.742;4.226;2023-09-08T11:47:02;7.63;;;2.78;;
20713;SDS011;10518;50.742;4.226;2023-09-08T11:49:35;3.63;;;2.78;;
20713;SDS011;10518;50.742;4.226;2023-09-08T11:52:05;3.50;;;2.40;;
20713;SDS011;10518;50.742;4.226;2023-09-08T11:54:32;3.60;;;2.50;;
20713;SDS011;10518;50.742;4.226;2023-09-08T11:57:03;4.45;;;2.78;;
20713;SDS011;10518;50.742;4.226;2023-09-08T11:59:32;3.25;;;2.22;;
20713;SDS011;10518;50.742;4.226;2023-09-08T12:02:01;8.95;;;3.28;;
20713;SDS011;10518;50.742;4.226;2023-09-08T12:04:27;4.05;;;2.47;;
20713;SDS011;10518;50.742;4.226;2023-09-08T12:06:53;8.02;;;3.03;;
20713;SDS011;10518;50.742;4.226;2023-09-08T12:09:21;4.40;;;2.67;;
20713;SDS011;10518;50.742;4.226;2023-09-08T12:11:46;4.53;;;2.92;;
20713;SDS011;10518;50.742;4.226;2023-09-08T12:14:13;3.03;;;2.50;;
20713;SDS011;10518;50.742;4.226;2023-09-08T12:16:42;2.65;;;2.20;;
20713;SDS011;10518;50.742;4.226;2023-09-08T12:19:10;4.15;;;2.63;;
20713;SDS011;10518;50.742;4.226;2023-09-08T12:22:02;4.18;;;2.10;;
20713;SDS011;10518;50.742;4.226;2023-09-08T12:27:18;3.60;;;2.60;;
20713;SDS011;10518;50.742;4.226;2023-09-08T12:29:54;4.20;;;2.72;;
20713;SDS011;10518;50.742;4.226;2023-09-08T12:32:26;4.07;;;2.72;;
20713;SDS011;10518;50.742;4.226;2023-09-08T12:34:54;4.95;;;2.40;;
20713;SDS011;10518;50.742;4.226;2023-09-08T12:37:24;4.18;;;2.80;;
20713;SDS011;10518;50.742;4.226;2023-09-08T12:39:52;3.88;;;2.30;;
20713;SDS011;10518;50.742;4.226;2023-09-08T12:42:18;5.85;;;2.40;;
20713;SDS011;10518;50.742;4.226;2023-09-08T12:44:44;3.17;;;2.10;;
20713;SDS011;10518;50.742;4.226;2023-09-08T12:47:10;2.30;;;2.08;;
20713;SDS011;10518;50.742;4.226;2023-09-08T12:49:39;3.30;;;2.42;;
20713;SDS011;10518;50.742;4.226;2023-09-08T12:52:05;12.77;;;2.53;;
20713;SDS011;10518;50.742;4.226;2023-09-08T12:54:31;2.75;;;2.00;;
20713;SDS011;10518;50.742;4.226;2023-09-08T12:56:57;3.10;;;2.38;;
20713;SDS011;10518;50.742;4.226;2023-09-08T12:59:23;4.32;;;2.50;;
20713;SDS011;10518;50.742;4.226;2023-09-08T13:01:48;5.88;;;3.05;;
20713;SDS011;10518;50.742;4.226;2023-09-08T13:04:14;4.50;;;2.67;;
20713;SDS011;10518;50.742;4.226;2023-09-08T13:06:40;5.60;;;2.33;;
20713;SDS011;10518;50.742;4.226;2023-09-08T13:09:05;7.70;;;2.22;;
20713;SDS011;10518;50.742;4.226;2023-09-08T13:11:32;5.38;;;2.17;;
20713;SDS011;10518;50.742;4.226;2023-09-08T13:13:58;3.15;;;1.90;;
20713;SDS011;10518;50.742;4.226;2023-09-08T13:16:23;3.58;;;2.45;;
20713;SDS011;10518;50.742;4.226;2023-09-08T13:18:49;5.90;;;2.50;;
20713;SDS011;10518;50.742;4.226;2023-09-08T13:21:14;3.80;;;2.33;;
20713;SDS011;10518;50.742;4.226;2023-09-08T13:23:40;5.80;;;3.00;;
20713;SDS011;10518;50.742;4.226;2023-09-08T13:26:06;4.68;;;2.70;;
20713;SDS011;10518;50.742;4.226;2023-09-08T13:28:31;12.63;;;2.53;;
20713;SDS011;10518;50.742;4.226;2023-09-08T13:30:57;3.20;;;2.35;;
20713;SDS011;10518;50.742;4.226;2023-09-08T13:33:23;3.38;;;2.33;;
20713;SDS011;10518;50.742;4.226;2023-09-08T13:35:54;3.15;;;2.17;;
20713;SDS011;10518;50.742;4.226;2023-09-08T13:38:23;4.57;;;2.83;;
20713;SDS011;10518;50.742;4.226;2023-09-08T13:40:49;4.88;;;2.40;;
20713;SDS011;10518;50.742;4.226;2023-09-08T13:43:15;4.57;;;2.70;;
20713;SDS011;10518;50.742;4.226;2023-09-08T13:45:40;4.57;;;2.63;;
20713;SDS011;10518;50.742;4.226;2023-09-08T13:48:09;5.85;;;2.50;;
20713;SDS011;10518;50.742;4.226;2023-09-08T13:50:34;10.20;;;2.95;;
20713;SDS011;10518;50.742;4.226;2023-09-08T13:53:02;6.78;;;2.83;;
20713;SDS011;10518;50.742;4.226;2023-09-08T13:55:28;4.72;;;2.85;;
20713;SDS011;10518;50.742;4.226;2023-09-08T13:57:54;2.20;;;1.95;;
20713;SDS011;10518;50.742;4.226;2023-09-08T14:00:19;3.10;;;2.38;;
20713;SDS011;10518;50.742;4.226;2023-09-08T14:02:45;4.30;;;2.88;;
20713;SDS011;10518;50.742;4.226;2023-09-08T14:05:11;7.55;;;2.75;;
20713;SDS011;10518;50.742;4.226;2023-09-08T14:07:36;4.57;;;2.78;;
20713;SDS011;10518;50.742;4.226;2023-09-08T14:10:02;5.35;;;2.50;;
20713;SDS011;10518;50.742;4.226;2023-09-08T14:12:32;7.15;;;2.63;;
20713;SDS011;10518;50.742;4.226;2023-09-08T14:14:58;5.10;;;2.42;;
20713;SDS011;10518;50.742;4.226;2023-09-08T14:17:24;2.72;;;2.20;;
20713;SDS011;10518;50.742;4.226;2023-09-08T14:19:50;4.68;;;2.45;;
20713;SDS011;10518;50.742;4.226;2023-09-08T14:22:15;3.40;;;2.70;;
20713;SDS011;10518;50.742;4.226;2023-09-08T14:24:41;4.30;;;2.67;;
20713;SDS011;10518;50.742;4.226;2023-09-08T14:27:06;7.07;;;2.85;;
20713;SDS011;10518;50.742;4.226;2023-09-08T14:29:35;6.32;;;2.60;;
20713;SDS011;10518;50.742;4.226;2023-09-08T14:32:01;4.10;;;2.85;;
20713;SDS011;10518;50.742;4.226;2023-09-08T14:34:27;4.20;;;2.92;;
20713;SDS011;10518;50.742;4.226;2023-09-08T14:36:56;4.35;;;2.67;;
20713;SDS011;10518;50.742;4.226;2023-09-08T14:39:21;9.32;;;2.75;;
20713;SDS011;10518;50.742;4.226;2023-09-08T14:41:48;6.70;;;2.85;;
20713;SDS011;10518;50.742;4.226;2023-09-08T14:44:15;4.85;;;3.13;;
20713;SDS011;10518;50.742;4.226;2023-09-08T14:46:41;5.93;;;2.67;;
20713;SDS011;10518;50.742;4.226;2023-09-08T14:49:06;6.40;;;2.95;;
20713;SDS011;10518;50.742;4.226;2023-09-08T14:51:32;9.55;;;3.25;;
20713;SDS011;10518;50.742;4.226;2023-09-08T14:53:57;5.05;;;3.00;;
20713;SDS011;10518;50.742;4.226;2023-09-08T14:56:23;8.05;;;3.33;;
20713;SDS011;10518;50.742;4.226;2023-09-08T14:58:49;3.22;;;2.70;;